x

Neah Bay, - 6nm North Of Cape Flattery, Wa (traffic Separation Lighted Buoy) (46087) Wave Buoy

11:50am - Mon 20th Feb 2017 All times are PST. -8 hours from GMT.

  • Sig Wave height 6.6ft
  • Swell Direction
  • Peak Period 14s
  • Average Period 10s
  • Wind
    9mph
  • Sea Temp 48°f
  • Air Temp 45°f
  • Sea Pressure 1001.3mb
  • Neah Bay, - 6nm North Of Cape Flattery, Wa     (traffic Separation Lighted Buoy)
  • Neah Bay, - 6nm North Of Cape Flattery, Wa     (traffic Separation Lighted Buoy)

More Historic Weather Station data

Upgrade to MSW Pro to gain access to the past 30 days of data for over 8000 Wavebouys and Weather Stations around the globe.

Join Pro

Comparision Forecast

View Surf forecast
   
Mon 02/20 11:50am 6.5ft 14s 10s 9
mph
1001.3mb 48f 45f
11:20am 7ft 14s 10s 7
mph
1000.9mb 48f 45f
10:50am 7ft 14s 10s 4 9 mph 1000.6mb 48f 44f
10:20am 8ft 15s 10s 7 11 mph 1000.4mb 48f 44f
9:50am 8ft 13s 10s 11 16 mph 1000mb 48f 44f
9:20am 7.5ft 12s 10s 13 18 mph 999.6mb 48f 44f
8:50am 8.5ft 15s 10s 11 16 mph 999.4mb 48f 43f
8:20am 9ft 14s 11s 7 9 mph 999.2mb 47f 43f
7:50am 9ft 12s 10s 7 9 mph 999.1mb 47f 43f
7:20am 9ft 14s 10s 7 11 mph 999.1mb 47f 43f
6:50am 9.5ft 13s 10s 9 13 mph 999.3mb 47f 43f
6:20am 9ft 13s 10s 9 11 mph 999.3mb 47f 44f
5:50am 9ft 14s 10s 7 9 mph 999.6mb 47f 44f
5:20am 8ft 15s 11s 9 11 mph 999.8mb 47f 44f
4:50am 8ft 14s 10s 9 11 mph 999.8mb 47f 44f
4:20am 7.5ft 16s 10s 11 13 mph 999.9mb 47f 44f
3:50am 8ft 15s 11s 11 16 mph 1000.1mb 47f 44f
3:20am 7.5ft 16s 10s 11 16 mph 1000.4mb 47f 44f
2:50am 8ft 15s 10s 9 13 mph 1000.7mb 47f 44f
2:20am 7ft 16s 10s 4 7 mph 1001.1mb 47f 44f
1:50am 8ft 16s 10s  -  2 mph 1001.4mb 47f 44f
1:20am 7ft 16s 10s 2 4 mph 1001.4mb 47f 45f
12:50am 6ft 16s 10s 4 7 mph 1001.4mb 47f 45f
12:20am 7ft 16s 10s 11 18 mph 1001.3mb 47f 44f
Sun 02/19 11:50pm 6ft 16s 9s 9 11 mph 1001.2mb 47f 45f
11:20pm 6.5ft 16s 9s 11 16 mph 1001mb 48f 45f
10:50pm 6ft 16s 8s 7 11 mph 1000.8mb 47f 45f
10:20pm 6.5ft 16s 8s 9 11 mph 1000.2mb 47f 46f
9:50pm 6ft 16s 8s 7 9 mph 1000.2mb 47f 45f
9:20pm 6.5ft 17s 8s 13 16 mph 999.8mb 47f 45f
8:50pm 6.5ft 17s 8s 11 16 mph 999.3mb 47f 45f
8:20pm 6ft 17s 7s 16 22 mph 998.9mb 47f 45f
7:50pm 6ft 17s 7s 16 20 mph 998.3mb 48f 46f
7:20pm 5.5ft 17s 7s 18 20 mph 997.8mb 48f 46f
6:50pm 5ft 19s 6s 18 22 mph 997.2mb 48f 46f
6:20pm 5ft 19s 7s 20 25 mph 996.9mb 48f 45f
5:50pm 5ft 10s 6s 18 22 mph 996.4mb 48f 45f
5:20pm 5ft 10s 7s 18 22 mph 996mb 48f 45f
4:50pm 5ft 10s 7s 16 20 mph 995.6mb 48f 46f
4:20pm 4.5ft 12s 6s 16 18 mph 995.3mb 48f 46f
3:50pm 4.5ft 10s 6s 16 20 mph 994.9mb 48f 47f
3:20pm 5ft 10s 6s 16 20 mph 994.7mb 48f 47f
2:50pm 4.5ft 11s 7s 18 22 mph 994.4mb 48f 46f
2:20pm 4.5ft 11s 7s 16 20 mph 994.2mb 47f 45f
1:50pm 4.5ft 11s 7s 16 18 mph 994.1mb 47f 44f
1:20pm 4.5ft 11s 7s 18 22 mph 994mb 47f 45f
12:50pm 4.5ft 11s 8s 18 20 mph 993.9mb 47f 45f
12:20pm 4.5ft 11s 7s 16 20 mph 994.2mb 47f 44f
11:50am 4.5ft 11s 8s 16 18 mph 994.2mb 47f 44f
11:20am 4.5ft 11s 8s 13 18 mph 994.2mb 47f 44f
10:50am 4.5ft 11s 8s 11 16 mph 993.8mb 47f 44f
10:20am 4.5ft 11s 8s 13 16 mph 993.6mb 47f 44f
9:50am 4.5ft 11s 7s 13 16 mph 993.6mb 47f 44f
9:20am 4.5ft 12s 8s 13 16 mph 993.4mb 47f 44f
8:50am 4.5ft 11s 8s 13 16 mph 993.3mb 47f 44f
8:20am 4.5ft 11s 7s 13 16 mph 993.2mb 47f 44f
7:50am 4.5ft 12s 8s 13 18 mph 993.2mb 47f 44f
7:20am 4.5ft 11s 8s 11 13 mph 993.2mb 47f 44f
6:50am 4.5ft 10s 8s 9
mph
993.1mb 47f 44f
6:20am 5ft 11s 8s 9 11 mph 993.3mb 47f 44f
5:50am 4.5ft 12s 7s 13 16 mph 993.2mb 47f 44f
5:20am 5ft 11s 8s 13 16 mph 993.2mb 47f 44f
4:50am 4.5ft 11s 8s 13 18 mph 993.2mb 47f 44f
4:20am 4.5ft 11s 8s 11 13 mph 993.5mb 47f 44f
3:50am 5.5ft 11s 8s 9 11 mph 993.5mb 47f 44f
3:20am 5ft 11s 8s 9 11 mph 993.7mb 47f 45f
2:50am 5.5ft 12s 9s 9 11 mph 994.1mb 47f 45f
2:20am 5ft 11s 8s 7 11 mph 994.3mb 47f 45f
1:50am 5ft 11s 8s 7 9 mph 994.4mb 47f 45f
1:20am 5.5ft 11s 8s 9 11 mph 994.5mb 47f 44f
12:50am 5.5ft 11s 8s 11 13 mph 994.8mb 47f 44f
12:20am 5.5ft 11s 8s 11 13 mph 994.8mb 47f 45f
Sat 02/18 11:50pm 5.5ft 11s 8s 11 13 mph 995mb 47f 44f
11:20pm 5.5ft 10s 8s 13 16 mph 995.1mb 47f 44f
10:50pm 6ft 11s 8s 11 16 mph 995.2mb 47f 46f
10:20pm 5.5ft 10s 8s 9 11 mph 995.1mb 47f 46f
9:50pm 6ft 13s 8s 11 13 mph 995.1mb 47f 46f
9:20pm 6ft 11s 8s 9 13 mph 995.1mb 47f 46f
8:50pm 6ft 11s 8s 9 11 mph 995mb 47f 46f
8:20pm 6ft 11s 8s 7 11 mph 994.7mb 47f 47f
7:50pm 6.5ft 11s 8s 9 11 mph 994.7mb 47f 47f
7:20pm 6ft 11s 8s 9 11 mph 994.7mb 48f 47f
6:50pm 5.5ft 11s 7s 9 11 mph 994.6mb 48f 47f
6:20pm 5.5ft 11s 7s 11 18 mph 994.5mb 48f 46f
5:50pm 5ft 12s 8s 16 18 mph 994.4mb 48f 45f
5:20pm 6ft 12s 8s 16 18 mph 994.4mb 48f 45f
4:50pm 5.5ft 12s 8s 16 18 mph 994.6mb 48f 45f
4:20pm 5.5ft 12s 8s 13 18 mph 994.6mb 48f 45f
3:50pm 5.5ft 11s 8s 16 18 mph 994.7mb 48f 45f
3:20pm 5ft 11s 8s 13 18 mph 994.8mb 48f 45f
2:50pm 5ft 13s 8s 13 18 mph 994.7mb 48f 44f
2:20pm 5.5ft 11s 8s 13 18 mph 994.8mb 48f 45f
1:50pm 5ft 12s 8s 16 18 mph 995mb 48f 45f
1:20pm 6ft 12s 8s 16 20 mph 995.2mb 48f 45f
12:50pm 5.5ft 11s 7s 16 20 mph 995.4mb 48f 45f
12:20pm 5ft 12s 7s 18 20 mph 995.5mb 48f 46f
11:50am 5.5ft 12s 6s 18 22 mph 995.6mb 48f 46f
11:20am 6ft 11s 7s 18 22 mph 995.8mb 47f 46f
10:50am 5.5ft 11s 7s 18 22 mph 996mb 47f 46f
10:20am 6ft 11s 8s 18 22 mph 996.2mb 47f 46f
9:50am 6ft 11s 8s 16 20 mph 996.2mb 47f 46f
9:20am 6ft 13s 8s 13 18 mph 996.3mb 47f 45f
8:50am 6ft 11s 8s 16 18 mph 996.2mb 47f 45f
8:20am 6ft 11s 9s 13 18 mph 996.4mb 47f 45f
7:50am 6.5ft 11s 9s 11 13 mph 996.7mb 47f 45f
7:20am 6.5ft 11s 9s 11 13 mph 996.8mb 47f 45f
6:50am 6.5ft 11s 9s 9 11 mph 997mb 47f 45f
6:20am 6ft 11s 9s 9 11 mph 997.2mb 47f 45f
5:50am 6ft 10s 9s 9 13 mph 997.4mb 47f 45f
5:20am 7ft 11s 9s 9 11 mph 997.4mb 47f 44f
4:50am 6ft 9s 9s 9 13 mph 997.5mb 47f 44f
4:20am 6ft 10s 9s 9 11 mph 997.6mb 47f 45f
3:50am 7ft 11s 9s 9 11 mph 997.9mb 47f 45f
3:20am 6.5ft 11s 9s 7 11 mph 998mb 47f 45f
2:50am 6ft 11s 9s 7 9 mph 998.3mb 47f 45f
2:20am 5.5ft 11s 8s 7 9 mph 998.3mb 47f 45f
1:50am 6ft 13s 9s 9
mph
998.4mb 47f 45f
1:20am 6ft 11s 9s 9 11 mph 998.7mb 47f 45f
12:50am 6ft 11s 9s 9 11 mph 999mb 47f 44f
12:20am 5.5ft 13s 8s 9 11 mph 999.1mb 47f 45f
Fri 02/17 11:50pm 6ft 11s 8s 7 11 mph 999.5mb 47f 45f
11:20pm 6ft 11s 8s 9 11 mph 999.7mb 48f 45f
10:50pm 6.5ft 11s 8s 11 13 mph 999.9mb 48f 45f
10:20pm 6ft 11s 9s 11 13 mph 1000.1mb 48f 45f
9:50pm 7.5ft 11s 9s 9 11 mph 1000.5mb 48f 46f
9:20pm 6.5ft 11s 8s 7 9 mph 1000.6mb 48f 46f
8:50pm 7ft 11s 9s 9 11 mph 1000.6mb 48f 46f
8:20pm 6.5ft 10s 9s 9 11 mph 1000.8mb 48f 46f
7:50pm 7ft 11s 9s 9 11 mph 1001.1mb 48f 46f
7:20pm 7ft 11s 9s 7 9 mph 1001.8mb 48f 47f
6:50pm 7ft 11s 9s 4 7 mph 1002mb 48f 47f
6:20pm 7.5ft 11s 9s 4 7 mph 1002.1mb 48f 47f
5:50pm 7.5ft 11s 9s 4 7 mph 1002.2mb 49f 47f
5:20pm 7ft 11s 9s 7 9 mph 1002.1mb 49f 47f
4:50pm 7ft 13s 9s 7 11 mph 1002mb 49f 47f
4:20pm 8ft 14s 9s 4 7 mph 1002.2mb 49f 47f
3:50pm 7ft 14s 9s 7 9 mph 1002.4mb 49f 48f
3:20pm 7ft 12s 9s 7 9 mph 1002.5mb 49f 48f
2:50pm 7.5ft 10s 9s 4 7 mph 1002.9mb 49f 47f
2:20pm 8ft 14s 10s 2 4 mph 1003.4mb 49f 47f
1:50pm 8ft 13s 10s 2 4 mph 1004.1mb 49f 47f
1:20pm 7.5ft 11s 10s 2 4 mph 1004.6mb 49f 47f
12:50pm 7ft 11s 9s 2 4 mph 1005mb 48f 47f
12:20pm 7ft 11s 10s 2 4 mph 1005.4mb 48f 47f
11:50am 7ft 11s 10s 4 7 mph 1005.8mb 48f 46f
11:20am 7ft 13s 9s 7 9 mph 1006.1mb 48f 45f
10:50am 7ft 14s 9s 9 11 mph 1006.3mb 48f 45f
10:20am 6ft 11s 9s 11 13 mph 1006.4mb 48f 45f
9:50am 6.5ft 14s 9s 11 16 mph 1006.6mb 48f 45f
9:20am 6ft 10s 9s 11 13 mph 1006.8mb 48f 45f
8:50am 6.5ft 14s 9s 13 16 mph 1006.6mb 48f 45f
8:20am 7ft 11s 9s 13 16 mph 1006.7mb 48f 45f
7:50am 8ft 11s 9s 11 13 mph 1006.6mb 48f 45f
7:20am 7ft 12s 9s 11 13 mph 1006.4mb 48f 45f
6:50am 7ft 14s 8s 11 13 mph 1006.6mb 47f 45f
6:20am 7ft 14s 8s 11 13 mph 1006.2mb 47f 45f
5:50am 8ft 14s 9s 7 11 mph 1006.3mb 47f 45f
5:20am 8ft 13s 9s 7 9 mph 1006.3mb 47f 46f
4:50am 7.5ft 15s 8s 9 11 mph 1006.1mb 47f 46f
4:20am 7.5ft 13s  -  9 11 mph 1006.1mb 47f 46f
3:50am 8ft 15s 9s 7 9 mph 1006.2mb 47f 46f
3:20am 8ft 11s 9s 4 7 mph 1006.2mb 47f 46f
2:50am 7.5ft 12s 8s 4
mph
1006.3mb 47f 46f
2:20am 7.5ft 13s 9s 7 9 mph 1006.2mb 47f 46f
1:50am 8ft 12s 9s 9
mph
1006.1mb 47f 47f
1:20am 8ft 11s 9s 7 9 mph 1006mb 47f 47f
12:50am 7ft 11s 9s 7 9 mph 1006.2mb 47f 47f
12:20am 7ft 11s 9s 7 9 mph 1005.9mb 48f 47f
Thu 02/16 11:50pm 8ft 14s 9s 11 13 mph 1005.7mb 48f 47f
11:20pm 8ft 15s 9s 11 16 mph 1005.5mb 48f 47f
10:50pm 7ft 11s 9s 13 16 mph 1005.3mb 48f 46f
10:20pm 7ft 11s 9s 13 16 mph 1005mb 48f 46f
9:50pm 8ft 11s 9s 11 16 mph 1004.6mb 48f 47f
9:20pm 8ft 11s 9s 13 18 mph 1004.1mb 48f 47f
8:50pm 8ft 13s 9s 13 16 mph 1003.6mb 47f 47f